Time;durP1;ratioP1;P1;durP2;ratioP2;P2;SDS_P1;SDS_P2;PMS_P1;PMS_P2;Temp;Humidity;BMP_temperature;BMP_pressure;BME280_temperature;BME280_humidity;BME280_pressure;Samples;Min_cycle;Max_cycle;Signal;HPM_P1;HPM_P2
2022/11/18 00:04:32;;;;;;;72.00;10.85;;;;;;;5.06;100.00;99510.53;10174377;29;20540;-74
2022/11/18 00:09:33;;;;;;;81.65;9.73;;;;;;;5.12;100.00;99524.91;10176276;29;20470;-74
2022/11/18 00:14:34;;;;;;;118.75;8.85;;;;;;;5.15;100.00;99529.84;10176407;29;20028;-74
2022/11/18 00:20:06;;;;;;;84.90;9.90;;;;;;;5.21;100.00;99519.53;10173490;29;20043;-74
2022/11/18 00:25:07;;;;;;;46.58;11.73;;;;;;;4.58;100.00;99420.53;10175265;29;20115;-75
2022/11/18 00:30:08;;;;;;;82.25;10.73;;;;;;;5.18;100.00;99503.22;10176439;29;20578;-74
2022/11/18 00:35:09;;;;;;;79.93;13.00;;;;;;;5.19;100.00;99478.53;10175372;29;20032;-74
2022/11/18 00:40:10;;;;;;;64.00;11.48;;;;;;;4.99;100.00;99441.03;10174359;29;20503;-74
2022/11/18 00:45:11;;;;;;;120.28;12.48;;;;;;;5.18;100.00;99471.63;10169638;29;20552;-74
2022/11/18 00:50:12;;;;;;;43.92;12.25;;;;;;;5.17;100.00;99454.16;10175690;29;20111;-74
2022/11/18 00:55:13;;;;;;;77.43;11.27;;;;;;;5.26;100.00;99458.50;10173196;29;20472;-74
2022/11/18 01:00:14;;;;;;;82.43;14.23;;;;;;;5.28;100.00;99443.38;10175527;29;20044;-74
2022/11/18 01:05:15;;;;;;;84.05;13.77;;;;;;;5.39;100.00;99453.66;10173866;29;20035;-74
2022/11/18 01:10:16;;;;;;;34.60;12.80;;;;;;;5.34;100.00;99437.47;10174262;29;20039;-74
2022/11/18 01:15:17;;;;;;;64.45;13.10;;;;;;;5.41;100.00;99437.66;10173247;29;20036;-74
2022/11/18 01:20:17;;;;;;;34.70;11.02;;;;;;;5.32;100.00;99407.00;10173769;29;20032;-74
2022/11/18 01:37:34;;;;;;;19.45;9.23;;;;;;;5.42;100.00;99423.53;10171820;29;20032;-74
2022/11/18 01:43:02;;;;;;;16.05;9.40;;;;;;;5.62;100.00;99461.81;10171643;29;20044;-74
2022/11/18 01:48:25;;;;;;;37.75;10.00;;;;;;;5.62;100.00;99442.53;10173826;29;20528;-74
2022/11/18 01:53:36;;;;;;;13.18;9.95;;;;;;;5.65;100.00;99448.34;10173332;29;20048;-73
2022/11/18 01:58:45;;;;;;;12.88;9.43;;;;;;;5.20;100.00;99353.78;10172659;29;20029;-74
2022/11/18 02:03:48;;;;;;;13.02;9.55;;;;;;;5.80;100.00;99451.19;10172815;29;20563;-73
2022/11/18 02:08:50;;;;;;;14.07;9.70;;;;;;;5.72;100.00;99448.53;10173001;29;20032;-74
2022/11/18 02:13:51;;;;;;;15.38;9.55;;;;;;;5.23;100.00;99367.50;10155596;29;20048;-74
2022/11/18 02:19:10;;;;;;;25.25;9.35;;;;;;;5.61;100.00;99435.63;10172791;29;20028;-74
2022/11/18 02:30:12;;;;;;;30.38;9.30;;;;;;;5.71;100.00;99466.16;10172664;29;20366;-74
2022/11/18 02:35:22;;;;;;;32.33;9.57;;;;;;;5.72;100.00;99459.91;10180216;29;20036;-74
2022/11/18 02:40:30;;;;;;;20.48;9.75;;;;;;;5.55;100.00;99434.44;10178604;29;20032;-74
2022/11/18 02:45:33;;;;;;;19.25;9.75;;;;;;;5.67;100.00;99453.44;10178999;29;20060;-74
2022/11/18 02:50:35;;;;;;;24.55;11.15;;;;;;;5.79;100.00;99468.00;10180340;29;20051;-74
2022/11/18 02:55:39;;;;;;;34.83;10.32;;;;;;;5.70;100.00;99440.78;10176147;29;20048;-74
2022/11/18 03:00:39;;;;;;;26.95;9.52;;;;;;;4.98;100.00;99321.78;10178724;29;20370;-74
2022/11/18 03:06:12;;;;;;;26.08;8.77;;;;;;;5.50;100.00;99415.66;10179007;29;20044;-74
2022/11/18 03:11:22;;;;;;;30.00;8.93;;;;;;;6.02;100.00;99480.63;10164547;29;20043;-74
2022/11/18 03:16:31;;;;;;;26.90;9.52;;;;;;;5.56;100.00;99398.41;10177427;29;20075;-73
2022/11/18 03:22:15;;;;;;;27.85;9.52;;;;;;;6.21;100.00;99495.34;10177124;29;20040;-73
2022/11/18 03:27:22;;;;;;;25.83;10.18;;;;;;;6.16;100.00;99498.47;10130940;29;20036;-74
2022/11/18 03:32:28;;;;;;;26.88;9.50;;;;;;;6.10;100.00;99476.22;10177853;29;20052;-74
2022/11/18 03:37:33;;;;;;;22.00;9.65;;;;;;;6.09;100.00;99474.53;10177476;29;20051;-74
2022/11/18 03:42:47;;;;;;;39.38;10.00;;;;;;;6.17;100.00;99471.94;10176435;29;20115;-74
2022/11/18 03:48:06;;;;;;;26.25;8.93;;;;;;;6.23;100.00;99465.19;10177327;29;20075;-74
2022/11/18 03:53:08;;;;;;;43.10;8.85;;;;;;;6.04;100.00;99476.00;10177361;29;20036;-73
2022/11/18 03:58:21;;;;;;;41.22;11.52;;;;;;;5.08;100.00;99349.78;10173996;29;20036;-73
2022/11/18 04:03:25;;;;;;;44.88;9.57;;;;;;;6.15;100.00;99513.47;10165379;29;20036;-74
2022/11/18 04:08:32;;;;;;;22.60;9.40;;;;;;;6.30;100.00;99547.97;10160893;29;20087;-73
2022/11/18 04:13:36;;;;;;;27.33;10.85;;;;;;;5.91;100.00;99477.25;10163749;29;20043;-74
2022/11/18 04:18:37;;;;;;;50.13;11.30;;;;;;;6.36;100.00;99547.31;10157597;29;20388;-74
2022/11/18 04:23:38;;;;;;;55.67;11.45;;;;;;;6.22;100.00;99513.63;10174626;29;20044;-73
2022/11/18 04:28:38;;;;;;;55.30;11.88;;;;;;;6.15;100.00;99517.91;10175847;29;20036;-73
2022/11/18 04:33:39;;;;;;;43.88;11.10;;;;;;;6.38;100.00;99563.81;10175594;29;20453;-73
2022/11/18 04:38:40;;;;;;;64.32;11.90;;;;;;;6.26;100.00;99565.09;10175194;29;20040;-73
2022/11/18 04:43:41;;;;;;;42.85;12.60;;;;;;;6.48;100.00;99583.97;10174705;29;20032;-73
2022/11/18 04:48:42;;;;;;;63.50;12.60;;;;;;;5.73;100.00;99471.25;10174532;29;20048;-73
2022/11/18 04:53:43;;;;;;;58.17;13.20;;;;;;;6.51;100.00;99615.31;10174447;29;20148;-73
2022/11/18 04:58:44;;;;;;;73.03;19.20;;;;;;;6.43;100.00;99563.31;10174931;29;20035;-74
2022/11/18 05:03:53;;;;;;;41.30;17.48;;;;;;;5.48;100.00;99404.47;10173218;29;20090;-75
2022/11/18 05:08:54;;;;;;;68.13;16.65;;;;;;;6.28;100.00;99517.44;10151423;29;20059;-74
2022/11/18 05:13:55;;;;;;;33.05;12.43;;;;;;;6.17;100.00;99531.78;10170931;29;20028;-73
2022/11/18 05:18:55;;;;;;;34.55;12.23;;;;;;;6.56;100.00;99571.63;10172620;29;20039;-73
2022/11/18 05:23:58;;;;;;;52.65;11.48;;;;;;;6.65;100.00;99582.22;10171703;29;20044;-72
2022/11/18 05:28:59;;;;;;;42.80;11.13;;;;;;;6.80;100.00;99621.00;10168977;29;20040;-72
2022/11/18 05:34:18;;;;;;;18.45;11.63;;;;;;;6.92;100.00;99702.56;10160569;29;20059;-72
2022/11/18 05:39:19;;;;;;;26.33;12.20;;;;;;;6.21;100.00;99570.00;10171708;29;20036;-74
2022/11/18 05:44:20;;;;;;;45.47;13.35;;;;;;;6.83;100.00;99675.31;10165177;29;20048;-72
2022/11/18 05:49:20;;;;;;;31.73;11.88;;;;;;;6.50;100.00;99600.47;10170641;29;20063;-73
2022/11/18 05:54:21;;;;;;;37.88;13.00;;;;;;;6.98;100.00;99665.78;10172924;29;20040;-73
2022/11/18 05:59:22;;;;;;;55.90;12.65;;;;;;;6.37;100.00;99512.06;10172760;29;20504;-73
2022/11/18 06:04:35;;;;;;;30.80;12.73;;;;;;;6.96;100.00;99598.25;10172780;29;20126;-75
2022/11/18 06:09:40;;;;;;;41.10;12.48;;;;;;;7.01;100.00;99590.69;10180392;29;20036;-73
2022/11/18 06:14:46;;;;;;;29.20;13.30;;;;;;;7.17;100.00;99577.47;10180116;29;20118;-73
2022/11/18 06:19:46;;;;;;;33.88;12.70;;;;;;;7.29;100.00;99572.69;10179863;29;20050;-75
2022/11/18 06:24:47;;;;;;;32.63;11.27;;;;;;;7.34;100.00;99577.50;10180403;29;20051;-74
2022/11/18 06:29:48;;;;;;;45.30;12.98;;;;;;;7.63;100.00;99638.59;10180384;29;20044;-71
2022/11/18 06:34:49;;;;;;;48.58;15.18;;;;;;;7.36;100.00;99586.91;10177096;29;20028;-72
2022/11/18 06:39:50;;;;;;;24.80;13.43;;;;;;;6.86;100.00;99482.25;10178612;29;20183;-72
2022/11/18 06:44:51;;;;;;;39.05;14.25;;;;;;;7.76;100.00;99646.00;10178276;29;20044;-71
2022/11/18 06:49:51;;;;;;;36.38;14.18;;;;;;;7.71;100.00;99664.19;10176186;29;20039;-72
2022/11/18 06:54:52;;;;;;;26.73;13.18;;;;;;;7.81;100.00;99648.13;10174029;29;20047;-72
2022/11/18 06:59:53;;;;;;;39.22;14.50;;;;;;;7.74;100.00;99632.94;10178094;29;20071;-72
2022/11/18 07:04:54;;;;;;;25.98;13.93;;;;;;;8.02;100.00;99696.06;10173422;29;20354;-72
2022/11/18 07:09:54;;;;;;;26.75;14.80;;;;;;;7.73;100.00;99651.63;10166551;29;20044;-71
2022/11/18 07:14:55;;;;;;;26.45;14.73;;;;;;;7.84;100.00;99687.47;10173020;29;20500;-72
2022/11/18 07:19:56;;;;;;;23.27;14.95;;;;;;;7.94;100.00;99706.66;10176887;29;20496;-71
2022/11/18 07:24:57;;;;;;;25.10;13.73;;;;;;;7.50;100.00;99651.47;10177929;29;20035;-71
2022/11/18 07:29:58;;;;;;;24.75;16.67;;;;;;;7.82;100.00;99742.34;10177624;29;20036;-71
2022/11/18 07:34:59;;;;;;;51.08;26.02;;;;;;;7.74;100.00;99706.16;10177570;29;20119;-71
2022/11/18 07:40:00;;;;;;;28.73;17.17;;;;;;;8.25;100.00;99804.66;10176978;29;20032;-72
2022/11/18 07:45:00;;;;;;;45.55;22.85;;;;;;;8.14;100.00;99763.50;10177238;29;20123;-72
2022/11/18 07:50:01;;;;;;;25.92;16.90;;;;;;;8.38;100.00;99748.59;10176893;29;20044;-73
2022/11/18 07:55:02;;;;;;;25.50;15.40;;;;;;;8.51;100.00;99740.16;10177123;29;20036;-73
2022/11/18 08:00:04;;;;;;;32.30;15.88;;;;;;;8.17;100.00;99660.00;10176863;29;20040;-73
2022/11/18 08:05:05;;;;;;;35.25;19.80;;;;;;;8.79;100.00;99751.97;10176008;29;20107;-73
2022/11/18 08:10:06;;;;;;;26.98;15.18;;;;;;;8.39;100.00;99684.09;10176345;29;20036;-73
2022/11/18 08:15:08;;;;;;;35.00;16.25;;;;;;;8.97;100.00;99735.03;10176234;29;20040;-73
2022/11/18 08:20:09;;;;;;;31.08;19.15;;;;;;;8.99;100.00;99715.31;10176264;29;20032;-73
2022/11/18 08:25:10;;;;;;;35.95;22.92;;;;;;;9.13;100.00;99701.34;10175329;29;20588;-72
2022/11/18 08:30:11;;;;;;;39.00;22.63;;;;;;;9.06;100.00;99681.84;10171411;29;20175;-72
2022/11/18 08:35:12;;;;;;;36.67;20.85;;;;;;;9.45;100.00;99702.13;10163002;29;20476;-72
2022/11/18 08:40:13;;;;;;;31.35;18.55;;;;;;;9.50;100.00;99710.38;10187110;29;20048;-73
2022/11/18 08:45:14;;;;;;;32.17;17.13;;;;;;;9.56;100.00;99704.38;10188673;29;20144;-72
2022/11/18 08:50:16;;;;;;;30.00;16.48;;;;;;;9.65;100.00;99704.31;10175244;29;20050;-72
2022/11/18 08:55:16;;;;;;;23.55;15.30;;;;;;;9.84;100.00;99725.03;10175010;29;20448;-72
2022/11/18 09:00:18;;;;;;;23.58;15.40;;;;;;;9.87;100.00;99731.81;10173832;29;20060;-72
2022/11/18 09:05:19;;;;;;;26.58;16.17;;;;;;;9.79;100.00;99714.16;10173969;29;20072;-72
2022/11/18 09:10:20;;;;;;;25.20;15.52;;;;;;;9.91;100.00;99731.28;10174491;29;20035;-72
2022/11/18 09:15:22;;;;;;;25.95;15.43;;;;;;;9.86;100.00;99728.34;10174319;29;20044;-72
2022/11/18 09:20:24;;;;;;;20.67;14.88;;;;;;;9.95;100.00;99729.09;10173385;29;20123;-72
2022/11/18 09:25:24;;;;;;;26.35;15.45;;;;;;;10.07;100.00;99754.19;10171222;29;20070;-72
2022/11/18 09:30:25;;;;;;;29.92;16.08;;;;;;;9.57;100.00;99633.59;10174018;29;20036;-72
2022/11/18 09:35:26;;;;;;;34.42;17.70;;;;;;;9.80;100.00;99660.91;10173628;29;20131;-73
2022/11/18 09:40:27;;;;;;;43.30;24.33;;;;;;;10.45;100.00;99738.28;10173311;29;20560;-71
2022/11/18 09:45:37;;;;;;;29.38;19.42;;;;;;;10.54;100.00;99752.31;10170736;29;20147;-71
2022/11/18 09:50:38;;;;;;;42.45;21.23;;;;;;;10.58;100.00;99721.72;10172036;29;20036;-71
2022/11/18 09:55:40;;;;;;;32.35;19.42;;;;;;;11.01;100.00;99769.69;10172612;29;20047;-72
2022/11/18 10:00:43;;;;;;;26.90;17.33;;;;;;;10.43;100.00;99650.00;10173254;29;20033;-71
2022/11/18 10:05:57;;;;;;;29.65;18.17;;;;;;;11.19;100.00;99764.84;10172398;29;20048;-72
2022/11/18 10:11:30;;;;;;;30.08;21.52;;;;;;;10.72;100.00;99696.97;10172314;29;20064;-72
2022/11/18 10:16:55;;;;;;;36.60;23.77;;;;;;;11.35;100.00;99791.19;10167874;29;20134;-77
2022/11/18 10:22:16;;;;;;;68.65;37.30;;;;;;;11.45;99.33;99808.69;10170607;29;20075;-72
2022/11/18 10:27:18;;;;;;;36.70;22.58;;;;;;;11.37;100.00;99805.13;10164099;29;20048;-72
2022/11/18 10:32:19;;;;;;;44.88;20.38;;;;;;;11.43;100.00;99808.91;10168104;29;20095;-75
2022/11/18 10:37:33;;;;;;;24.88;15.40;;;;;;;11.51;98.69;99823.91;10172561;29;20032;-71
2022/11/18 10:42:40;;;;;;;24.52;15.02;;;;;;;11.52;100.00;99833.56;10154856;29;20428;-71
2022/11/18 10:47:41;;;;;;;24.13;15.10;;;;;;;11.04;99.84;99761.34;10172395;29;20055;-71
2022/11/18 10:52:52;;;;;;;23.38;14.13;;;;;;;11.51;99.22;99845.19;10174306;29;20039;-71
2022/11/18 10:57:57;;;;;;;25.83;15.55;;;;;;;11.35;99.29;99852.34;10178661;29;20059;-71
2022/11/18 11:03:32;;;;;;;26.35;15.32;;;;;;;11.45;98.29;99859.22;10178771;29;20126;-71
2022/11/18 11:09:05;;;;;;;22.77;14.80;;;;;;;11.57;98.21;99865.72;10178756;29;20384;-71
2022/11/18 11:14:27;;;;;;;24.88;16.30;;;;;;;11.46;98.09;99874.16;10178565;29;20038;-69
2022/11/18 11:19:38;;;;;;;29.77;16.42;;;;;;;10.93;98.62;99837.88;10178441;29;20536;-72
2022/11/18 11:24:39;;;;;;;25.67;16.40;;;;;;;10.67;100.00;99824.22;10176648;29;20040;-74
2022/11/18 11:29:52;;;;;;;28.40;16.42;;;;;;;11.00;99.54;99882.34;10163854;29;20059;-73
2022/11/18 11:35:19;;;;;;;28.80;16.05;;;;;;;11.02;99.88;99891.78;10166683;29;20066;-73
2022/11/18 11:40:41;;;;;;;25.85;15.85;;;;;;;10.67;99.19;99856.09;10146441;29;20044;-74
2022/11/18 11:46:02;;;;;;;27.15;16.63;;;;;;;11.00;99.81;99924.84;10173744;29;20143;-72
2022/11/18 11:51:23;;;;;;;25.35;17.13;;;;;;;11.05;99.70;99927.81;10166129;29;20098;-73
2022/11/18 11:56:39;;;;;;;24.00;15.98;;;;;;;11.10;99.29;99938.72;10161580;29;20433;-73
2022/11/18 12:02:05;;;;;;;30.08;16.65;;;;;;;10.99;99.21;99949.78;10168678;29;20079;-73
2022/11/18 12:07:17;;;;;;;32.05;18.85;;;;;;;10.95;99.72;99946.69;10179066;29;20067;-73
2022/11/18 12:12:33;;;;;;;31.70;17.70;;;;;;;10.84;99.90;99941.78;10155407;29;20053;-75
2022/11/18 12:17:44;;;;;;;36.00;22.58;;;;;;;10.77;100.00;99949.66;10168360;29;20036;-74
2022/11/18 12:23:11;;;;;;;65.10;33.33;;;;;;;10.79;100.00;99958.25;10149206;29;20083;-73
2022/11/18 12:28:41;;;;;;;32.50;19.45;;;;;;;10.68;100.00;99974.63;10136104;29;20042;-73
2022/11/18 12:33:53;;;;;;;36.70;20.35;;;;;;;10.57;100.00;99998.94;10146996;29;20063;-73
2022/11/18 12:38:55;;;;;;;45.78;24.90;;;;;;;10.49;100.00;100003.28;10173418;29;20050;-73
2022/11/18 12:44:05;;;;;;;36.63;18.13;;;;;;;10.45;100.00;100003.84;10173969;29;20036;-74
2022/11/18 12:49:21;;;;;;;38.08;22.45;;;;;;;9.52;100.00;99862.16;10174586;29;20044;-72
2022/11/18 12:54:40;;;;;;;31.90;16.40;;;;;;;10.28;100.00;100029.66;10175282;29;20044;-73
2022/11/18 12:59:40;;;;;;;45.45;23.02;;;;;;;10.05;100.00;100051.63;10174122;29;20512;-72
2022/11/18 13:04:41;;;;;;;31.77;18.48;;;;;;;9.87;100.00;100028.94;10174153;29;20038;-73
2022/11/18 13:09:42;;;;;;;60.35;29.30;;;;;;;9.75;100.00;100029.34;10174471;29;20425;-73
2022/11/18 13:20:03;;;;;;;80.47;35.35;;;;;;;9.47;100.00;100063.34;10173454;29;20048;-73
2022/11/18 13:25:04;;;;;;;77.75;32.17;;;;;;;8.62;100.00;99955.09;10172357;29;20040;-73
2022/11/18 13:30:10;;;;;;;55.95;28.13;;;;;;;9.07;100.00;100053.63;10173066;29;20130;-72
2022/11/18 13:35:18;;;;;;;53.38;29.30;;;;;;;8.86;100.00;100067.34;10176860;29;20426;-73
2022/11/18 13:40:22;;;;;;;60.25;33.33;;;;;;;8.74;100.00;100076.59;10172483;29;20051;-73
2022/11/18 13:45:27;;;;;;;46.50;25.15;;;;;;;8.06;100.00;99990.19;10172106;29;20404;-73
2022/11/18 13:50:35;;;;;;;57.50;28.48;;;;;;;8.49;100.00;100071.22;10170481;29;20460;-73
2022/11/18 13:55:52;;;;;;;56.75;25.30;;;;;;;8.43;100.00;100072.69;10172040;29;20043;-73
2022/11/18 14:01:02;;;;;;;55.92;24.67;;;;;;;7.82;100.00;100012.06;10171763;29;20035;-73
2022/11/18 14:06:04;;;;;;;35.28;19.52;;;;;;;8.00;100.00;100068.38;10161861;29;20401;-73
2022/11/18 14:11:06;;;;;;;46.63;21.88;;;;;;;7.65;100.00;100061.38;10165474;29;20038;-73
2022/11/18 14:16:35;;;;;;;51.80;22.42;;;;;;;7.92;100.00;100118.56;10170478;29;20040;-72
2022/11/18 14:21:39;;;;;;;47.92;21.75;;;;;;;7.70;100.00;100107.53;10164223;29;20134;-72
2022/11/18 14:26:40;;;;;;;;;;;;;;;7.86;100.00;100137.69;10161634;29;20501;-72
2022/11/18 14:31:41;;;;;;;57.20;19.40;;;;;;;7.08;100.00;100059.16;10179411;29;19915;-74
2022/11/18 14:36:44;;;;;;;49.20;23.58;;;;;;;7.12;100.00;100097.50;10175714;29;20041;-72
2022/11/18 14:41:48;;;;;;;53.70;25.02;;;;;;;7.40;100.00;100172.22;10177328;29;20389;-74
2022/11/18 14:47:26;;;;;;;45.80;23.33;;;;;;;7.43;100.00;100185.13;10176839;29;20592;-74
2022/11/18 14:52:27;;;;;;;43.97;21.67;;;;;;;7.27;100.00;100188.47;10171783;29;20292;-73
2022/11/18 14:57:27;;;;;;;41.35;21.02;;;;;;;6.74;100.00;100110.00;10178160;29;20040;-72
2022/11/18 15:02:28;;;;;;;52.15;26.10;;;;;;;7.30;100.00;100195.25;10175722;29;20055;-73
2022/11/18 15:07:29;;;;;;;74.07;34.85;;;;;;;7.20;100.00;100197.94;10175720;29;20028;-72
2022/11/18 15:12:30;;;;;;;287.80;111.80;;;;;;;7.46;100.00;100234.22;10147765;29;20068;-76
2022/11/18 15:17:31;;;;;;;299.30;119.65;;;;;;;7.36;100.00;100226.38;10157719;29;20437;-73
2022/11/18 15:22:33;;;;;;;233.48;101.90;;;;;;;7.29;100.00;100223.47;10155394;29;20072;-72
2022/11/18 15:27:34;;;;;;;176.75;73.15;;;;;;;7.37;100.00;100258.91;10156689;29;20036;-73
2022/11/18 15:32:35;;;;;;;253.88;111.03;;;;;;;6.91;100.00;100198.16;10156710;29;20426;-73
2022/11/18 15:37:36;;;;;;;331.10;153.40;;;;;;;7.45;100.00;100294.19;10157238;29;20033;-73
2022/11/18 15:42:37;;;;;;;331.42;149.18;;;;;;;6.83;100.00;100183.03;10173648;29;20079;-72
2022/11/18 15:47:38;;;;;;;321.50;151.60;;;;;;;7.45;100.00;100296.84;10165206;29;20048;-73
2022/11/18 15:52:39;;;;;;;316.05;157.57;;;;;;;7.52;100.00;100295.25;10176577;29;20031;-73
2022/11/18 15:57:40;;;;;;;273.77;141.95;;;;;;;7.72;100.00;100327.69;10177036;29;20040;-73
2022/11/18 16:02:40;;;;;;;288.88;140.65;;;;;;;7.69;100.00;100341.19;10176394;29;20032;-72
2022/11/18 16:14:05;;;;;;;146.23;70.43;;;;;;;7.71;100.00;100360.38;10173686;29;20418;-72
2022/11/18 16:19:08;;;;;;;128.82;62.85;;;;;;;7.69;100.00;100364.16;10176835;29;20111;-72
2022/11/18 16:24:21;;;;;;;105.93;55.90;;;;;;;7.68;100.00;100352.72;10175828;29;20036;-72
2022/11/18 16:29:24;;;;;;;120.82;64.05;;;;;;;7.75;100.00;100371.50;10175746;29;20115;-73
2022/11/18 16:34:26;;;;;;;100.97;52.27;;;;;;;7.80;100.00;100378.97;10159709;29;20048;-73
2022/11/18 16:39:28;;;;;;;110.57;58.95;;;;;;;7.74;100.00;100383.03;10155246;29;20028;-72
2022/11/18 16:44:28;;;;;;;417.05;213.30;;;;;;;7.70;100.00;100381.69;10168736;29;20032;-72
2022/11/18 16:49:29;;;;;;;212.40;101.93;;;;;;;7.81;100.00;100399.13;10170847;29;20044;-72
2022/11/18 16:54:32;;;;;;;158.50;75.18;;;;;;;7.34;100.00;100341.97;10173230;29;20384;-72
2022/11/18 16:59:33;;;;;;;134.07;66.97;;;;;;;7.62;100.00;100379.75;10163040;29;20051;-72
2022/11/18 17:04:35;;;;;;;117.38;58.83;;;;;;;7.70;100.00;100398.38;10172600;29;20052;-73
2022/11/18 17:09:36;;;;;;;144.60;68.70;;;;;;;7.23;100.00;100369.38;10172964;29;20038;-72
2022/11/18 17:14:38;;;;;;;118.60;58.65;;;;;;;7.72;100.00;100433.44;10173021;29;20196;-73
2022/11/18 17:19:39;;;;;;;157.20;71.60;;;;;;;7.55;100.00;100405.13;10172400;29;20044;-73
2022/11/18 17:24:42;;;;;;;267.30;151.93;;;;;;;7.35;100.00;100366.56;10172954;29;20492;-73
2022/11/18 17:29:44;;;;;;;135.13;66.18;;;;;;;7.26;100.00;100352.41;10173752;29;20126;-72
2022/11/18 17:34:44;;;;;;;129.10;61.78;;;;;;;7.59;100.00;100416.25;10169285;29;20555;-73
2022/11/18 17:39:46;;;;;;;153.35;68.25;;;;;;;7.62;100.00;100426.53;10171378;29;20131;-72
2022/11/18 17:44:47;;;;;;;166.75;69.75;;;;;;;7.64;100.00;100467.72;10173518;29;20168;-72
2022/11/18 17:49:48;;;;;;;103.72;50.95;;;;;;;6.83;100.00;100338.81;10172024;29;20137;-72
2022/11/18 17:54:49;;;;;;;90.43;44.83;;;;;;;7.09;100.00;100381.28;10163548;29;20400;-72
2022/11/18 17:59:49;;;;;;;82.13;41.45;;;;;;;7.68;100.00;100479.66;10159237;29;20040;-73
2022/11/18 18:04:50;;;;;;;93.65;43.75;;;;;;;7.58;100.00;100476.22;10169256;29;20369;-72
2022/11/18 18:09:51;;;;;;;92.38;42.97;;;;;;;7.57;100.00;100481.66;10179202;29;20052;-73
2022/11/18 18:14:52;;;;;;;76.57;35.83;;;;;;;7.09;100.00;100405.06;10176415;29;20098;-73
2022/11/18 18:19:52;;;;;;;71.75;36.10;;;;;;;7.61;100.00;100483.03;10179501;29;20051;-73
2022/11/18 18:24:54;;;;;;;72.30;37.50;;;;;;;7.40;100.00;100446.25;10178863;29;20055;-73
2022/11/18 18:29:55;;;;;;;91.13;43.33;;;;;;;7.31;100.00;100425.00;10178726;29;20040;-72
2022/11/18 18:34:55;;;;;;;99.78;44.97;;;;;;;6.92;100.00;100394.41;10179751;29;20032;-73
2022/11/18 18:39:56;;;;;;;65.95;36.20;;;;;;;7.36;100.00;100480.06;10173288;29;20103;-73
2022/11/18 18:50:16;;;;;;;86.90;39.53;;;;;;;7.32;100.00;100489.25;10179514;29;20138;-72
2022/11/18 18:55:17;;;;;;;71.00;33.33;;;;;;;7.41;100.00;100513.97;10175176;29;20584;-73
2022/11/18 19:00:18;;;;;;;56.63;32.17;;;;;;;7.32;100.00;100511.22;10175438;29;20040;-73
2022/11/18 19:05:19;;;;;;;59.65;32.10;;;;;;;6.77;100.00;100421.25;10177888;29;20043;-73
2022/11/18 19:10:19;;;;;;;63.13;32.70;;;;;;;6.88;100.00;100451.09;10179818;29;20038;-72
2022/11/18 19:15:21;;;;;;;59.53;32.42;;;;;;;7.05;100.00;100513.78;10177998;29;20044;-73
2022/11/18 19:20:37;;;;;;;52.00;27.77;;;;;;;7.03;100.00;100531.56;10178467;29;20028;-73
2022/11/18 19:25:38;;;;;;;58.05;28.90;;;;;;;6.67;100.00;100510.19;10178116;29;20385;-72
2022/11/18 19:30:39;;;;;;;47.63;24.90;;;;;;;6.77;100.00;100526.84;10176957;29;20044;-73
2022/11/18 19:35:46;;;;;;;48.45;25.70;;;;;;;6.56;100.00;100519.06;10177144;29;20040;-73
2022/11/18 19:40:47;;;;;;;53.45;26.13;;;;;;;5.91;100.00;100420.22;10177230;29;20091;-73
2022/11/18 19:45:51;;;;;;;73.57;35.10;;;;;;;6.55;100.00;100527.97;10177818;29;20103;-73
2022/11/18 19:51:02;;;;;;;70.97;33.08;;;;;;;6.77;100.00;100540.06;10178345;29;20075;-73
2022/11/18 19:56:06;;;;;;;55.58;27.20;;;;;;;6.72;100.00;100555.47;10177269;29;20503;-73
2022/11/18 20:01:13;;;;;;;53.33;27.70;;;;;;;6.59;100.00;100539.09;10191639;29;20043;-74
2022/11/18 20:06:16;;;;;;;64.38;31.52;;;;;;;6.56;100.00;100523.53;10176857;29;20036;-74
2022/11/18 20:11:19;;;;;;;65.32;29.73;;;;;;;6.82;100.00;100555.47;10176643;29;20040;-76
2022/11/18 20:16:23;;;;;;;65.40;33.35;;;;;;;6.89;100.00;100553.13;10175384;29;20512;-73
2022/11/18 20:21:25;;;;;;;54.63;29.57;;;;;;;6.71;100.00;100559.09;10175845;29;20032;-73
2022/11/18 20:26:30;;;;;;;56.97;31.05;;;;;;;6.51;100.00;100521.28;10175858;29;20044;-73
2022/11/18 20:32:17;;;;;;;63.47;33.55;;;;;;;6.68;100.00;100553.25;10175677;29;20047;-73
2022/11/18 20:37:18;;;;;;;59.17;31.42;;;;;;;5.94;100.00;100478.81;10175582;29;20050;-73
2022/11/18 20:47:38;;;;;;;66.35;34.78;;;;;;;6.32;100.00;100580.13;10174638;29;20481;-74
2022/11/18 20:52:39;;;;;;;52.63;28.65;;;;;;;6.03;100.00;100552.84;10175138;29;20087;-73
2022/11/18 20:57:57;;;;;;;59.97;31.67;;;;;;;6.02;100.00;100577.53;10174256;29;20034;-72
2022/11/18 21:02:58;;;;;;;69.05;32.97;;;;;;;5.47;100.00;100502.22;10174895;29;20039;-72
2022/11/18 21:07:58;;;;;;;59.47;30.48;;;;;;;5.90;100.00;100574.97;10174620;29;20377;-72
2022/11/18 21:18:18;;;;;;;51.20;24.90;;;;;;;5.48;100.00;100561.00;10174270;29;20032;-72
2022/11/18 21:23:19;;;;;;;52.67;25.88;;;;;;;5.51;100.00;100570.47;10173502;29;20398;-72
2022/11/18 21:28:20;;;;;;;67.65;29.10;;;;;;;5.37;100.00;100548.72;10173913;29;20056;-72
2022/11/18 21:33:21;;;;;;;46.70;25.08;;;;;;;5.56;100.00;100589.34;10172992;29;20048;-72
2022/11/18 21:38:22;;;;;;;50.58;26.92;;;;;;;5.38;100.00;100582.00;10173348;29;20101;-72
2022/11/18 21:43:23;;;;;;;48.80;25.25;;;;;;;5.38;100.00;100582.00;10172890;29;20090;-73
2022/11/18 21:48:24;;;;;;;40.10;22.45;;;;;;;5.43;100.00;100573.72;10172246;29;20184;-72
2022/11/18 21:53:25;;;;;;;46.08;27.52;;;;;;;5.31;100.00;100561.59;10173077;29;20148;-73
2022/11/18 21:58:26;;;;;;;50.40;27.27;;;;;;;5.37;100.00;100568.97;10172357;29;20032;-73
2022/11/18 22:03:27;;;;;;;45.42;25.63;;;;;;;5.33;100.00;100567.59;10172672;29;20046;-72
2022/11/18 22:08:28;;;;;;;41.13;24.20;;;;;;;5.15;100.00;100573.41;10172446;29;20087;-72
2022/11/18 22:13:35;;;;;;;52.42;27.17;;;;;;;5.17;100.00;100574.09;10172694;29;20461;-72
2022/11/18 22:18:39;;;;;;;49.75;26.92;;;;;;;4.62;100.00;100483.06;10186806;29;20380;-73
2022/11/18 22:23:40;;;;;;;41.57;22.17;;;;;;;4.63;100.00;100503.16;10172970;29;20058;-72
2022/11/18 22:28:41;;;;;;;55.33;25.60;;;;;;;4.89;100.00;100566.81;10172566;29;20453;-72
2022/11/18 22:34:23;;;;;;;49.72;26.02;;;;;;;4.89;100.00;100572.91;10172205;29;20044;-72
2022/11/18 22:39:23;;;;;;;42.22;24.33;;;;;;;4.72;100.00;100555.03;10172484;29;20384;-72
2022/11/18 22:44:24;;;;;;;47.60;25.15;;;;;;;4.90;100.00;100581.66;10186282;29;20036;-72
2022/11/18 22:49:25;;;;;;;51.30;25.67;;;;;;;4.62;100.00;100576.00;10177458;29;20150;-72
2022/11/18 22:54:26;;;;;;;43.72;25.40;;;;;;;4.64;100.00;100594.31;10180053;29;20036;-73
2022/11/18 22:59:27;;;;;;;39.50;21.40;;;;;;;4.56;100.00;100590.47;10179852;29;20461;-72
2022/11/18 23:10:29;;;;;;;41.97;24.98;;;;;;;4.21;100.00;100574.03;10178579;29;20048;-72
2022/11/18 23:21:36;;;;;;;43.65;25.23;;;;;;;4.31;100.00;100604.75;10178999;29;20385;-72
2022/11/18 23:26:37;;;;;;;52.53;26.50;;;;;;;4.25;100.00;100633.34;10178456;29;20032;-73
2022/11/18 23:31:43;;;;;;;57.25;28.35;;;;;;;4.22;100.00;100623.03;10177532;29;20035;-72
2022/11/18 23:36:45;;;;;;;60.53;27.92;;;;;;;4.23;100.00;100637.88;10178538;29;20068;-73
2022/11/18 23:41:45;;;;;;;107.18;29.92;;;;;;;4.00;100.00;100616.81;10177862;29;20418;-72
2022/11/18 23:46:46;;;;;;;116.10;27.80;;;;;;;4.16;100.00;100645.41;10172265;29;20136;-72
2022/11/18 23:51:47;;;;;;;204.50;31.77;;;;;;;4.15;100.00;100637.63;10176384;29;20477;-72
2022/11/18 23:56:48;;;;;;;88.43;28.85;;;;;;;4.02;100.00;100621.97;10176743;29;20032;-73
